Terminal Aerodrome Forecast
Issued by NWS

Home | Current Version | Previous Version | Text Only | Print | Product List | Glossary On
Versions: 1 2 3 4 5 6 7 8 9 10 11 12 13 14 15 16 17
000
FTAK31 PAFA 242334
TAFAOR
TAF
PAOR 242334Z 2500/2524 VRB03KT P6SM BKN015 BKN070
     FM250300 VRB03KT 6SM -SN BKN015 OVC025
     FM250600 VRB04KT 4SM -SN BR OVC015
     FM251800 VRB04KT P6SM OVC015=

USA.gov is the U.S. government's official web portal to all federal, state and local government web resources and services.